sensor_id;sensor_type;location;lat;lon;timestamp;temperature;humidity
5796;DHT22;2924;51.458;7.046;2023-01-29T00:01:27;-3.90;99.90
5796;DHT22;2924;51.458;7.046;2023-01-29T00:03:53;-3.90;99.90
5796;DHT22;2924;51.458;7.046;2023-01-29T00:06:18;-4.00;99.90
5796;DHT22;2924;51.458;7.046;2023-01-29T00:08:44;-4.10;99.90
5796;DHT22;2924;51.458;7.046;2023-01-29T00:11:11;-4.10;99.90
5796;DHT22;2924;51.458;7.046;2023-01-29T00:13:37;-4.00;99.90
5796;DHT22;2924;51.458;7.046;2023-01-29T00:16:03;-3.90;99.90
5796;DHT22;2924;51.458;7.046;2023-01-29T00:18:29;-3.90;99.90
5796;DHT22;2924;51.458;7.046;2023-01-29T00:20:55;-3.90;99.90
5796;DHT22;2924;51.458;7.046;2023-01-29T00:23:22;-4.00;99.90
5796;DHT22;2924;51.458;7.046;2023-01-29T00:25:48;-4.00;99.90
5796;DHT22;2924;51.458;7.046;2023-01-29T00:28:14;-4.10;99.90
5796;DHT22;2924;51.458;7.046;2023-01-29T00:30:40;-4.20;99.90
5796;DHT22;2924;51.458;7.046;2023-01-29T00:33:06;-4.30;99.90
5796;DHT22;2924;51.458;7.046;2023-01-29T00:35:32;-4.30;99.90
5796;DHT22;2924;51.458;7.046;2023-01-29T00:37:58;-4.40;99.90
5796;DHT22;2924;51.458;7.046;2023-01-29T00:40:25;-4.40;99.90
5796;DHT22;2924;51.458;7.046;2023-01-29T00:42:51;-4.40;99.90
5796;DHT22;2924;51.458;7.046;2023-01-29T00:45:36;-4.40;99.90
5796;DHT22;2924;51.458;7.046;2023-01-29T00:48:03;-4.30;99.90
5796;DHT22;2924;51.458;7.046;2023-01-29T00:50:29;-4.30;99.90
5796;DHT22;2924;51.458;7.046;2023-01-29T00:52:55;-4.20;99.90
5796;DHT22;2924;51.458;7.046;2023-01-29T00:55:20;-4.10;99.90
5796;DHT22;2924;51.458;7.046;2023-01-29T00:57:46;-4.30;99.90
5796;DHT22;2924;51.458;7.046;2023-01-29T01:00:14;-4.40;99.90
5796;DHT22;2924;51.458;7.046;2023-01-29T01:02:40;-4.60;99.90
5796;DHT22;2924;51.458;7.046;2023-01-29T01:05:25;-4.70;99.90
5796;DHT22;2924;51.458;7.046;2023-01-29T01:07:53;-4.80;99.90
5796;DHT22;2924;51.458;7.046;2023-01-29T01:10:27;-4.80;99.90
5796;DHT22;2924;51.458;7.046;2023-01-29T01:12:56;-4.70;99.90
5796;DHT22;2924;51.458;7.046;2023-01-29T01:15:24;-4.50;99.90
5796;DHT22;2924;51.458;7.046;2023-01-29T01:17:52;-4.50;99.90
5796;DHT22;2924;51.458;7.046;2023-01-29T01:20:18;-4.40;99.90
5796;DHT22;2924;51.458;7.046;2023-01-29T01:22:43;-4.30;99.90
5796;DHT22;2924;51.458;7.046;2023-01-29T01:25:09;-4.30;99.90
5796;DHT22;2924;51.458;7.046;2023-01-29T01:27:35;-4.30;99.90
5796;DHT22;2924;51.458;7.046;2023-01-29T01:30:10;-4.20;99.90
5796;DHT22;2924;51.458;7.046;2023-01-29T01:32:36;-4.10;99.90
5796;DHT22;2924;51.458;7.046;2023-01-29T01:35:02;-4.00;99.90
5796;DHT22;2924;51.458;7.046;2023-01-29T01:37:27;-3.90;99.90
5796;DHT22;2924;51.458;7.046;2023-01-29T01:39:53;-3.90;99.90
5796;DHT22;2924;51.458;7.046;2023-01-29T01:42:27;-4.00;99.90
5796;DHT22;2924;51.458;7.046;2023-01-29T01:47:34;-3.90;99.90
5796;DHT22;2924;51.458;7.046;2023-01-29T01:50:28;-4.00;99.90
5796;DHT22;2924;51.458;7.046;2023-01-29T01:52:55;-4.00;99.90
5796;DHT22;2924;51.458;7.046;2023-01-29T01:55:25;-3.90;99.90
5796;DHT22;2924;51.458;7.046;2023-01-29T01:57:56;-3.90;99.90
5796;DHT22;2924;51.458;7.046;2023-01-29T02:00:25;-3.90;99.90
5796;DHT22;2924;51.458;7.046;2023-01-29T02:02:51;-4.00;99.90
5796;DHT22;2924;51.458;7.046;2023-01-29T02:05:36;-4.10;99.90
5796;DHT22;2924;51.458;7.046;2023-01-29T02:08:47;-4.00;99.90
5796;DHT22;2924;51.458;7.046;2023-01-29T02:11:32;-4.00;99.90
5796;DHT22;2924;51.458;7.046;2023-01-29T02:13:58;-4.00;99.90
5796;DHT22;2924;51.458;7.046;2023-01-29T02:16:24;-4.00;99.90
5796;DHT22;2924;51.458;7.046;2023-01-29T02:18:50;-4.10;99.90
5796;DHT22;2924;51.458;7.046;2023-01-29T02:21:21;-4.10;99.90
5796;DHT22;2924;51.458;7.046;2023-01-29T02:35:13;-3.80;99.90
5796;DHT22;2924;51.458;7.046;2023-01-29T02:40:41;-3.90;99.90
5796;DHT22;2924;51.458;7.046;2023-01-29T02:43:29;-3.80;99.90
5796;DHT22;2924;51.458;7.046;2023-01-29T02:51:23;-3.70;99.90
5796;DHT22;2924;51.458;7.046;2023-01-29T02:56:55;-3.50;99.90
5796;DHT22;2924;51.458;7.046;2023-01-29T02:59:39;-3.50;99.90
5796;DHT22;2924;51.458;7.046;2023-01-29T03:02:13;-3.40;99.90
5796;DHT22;2924;51.458;7.046;2023-01-29T03:04:44;-3.40;99.90
5796;DHT22;2924;51.458;7.046;2023-01-29T03:07:22;-3.40;99.90
5796;DHT22;2924;51.458;7.046;2023-01-29T03:10:18;-3.50;99.90
5796;DHT22;2924;51.458;7.046;2023-01-29T03:12:52;-3.60;99.90
5796;DHT22;2924;51.458;7.046;2023-01-29T03:15:24;-3.60;99.90
5796;DHT22;2924;51.458;7.046;2023-01-29T03:18:00;-3.70;99.90
5796;DHT22;2924;51.458;7.046;2023-01-29T03:20:30;-3.50;99.90
5796;DHT22;2924;51.458;7.046;2023-01-29T03:23:04;-3.30;99.90
5796;DHT22;2924;51.458;7.046;2023-01-29T03:25:34;-3.30;99.90
5796;DHT22;2924;51.458;7.046;2023-01-29T03:28:20;-3.30;99.90
5796;DHT22;2924;51.458;7.046;2023-01-29T03:31:08;-3.20;99.90
5796;DHT22;2924;51.458;7.046;2023-01-29T03:34:14;-3.30;99.90
5796;DHT22;2924;51.458;7.046;2023-01-29T03:37:00;-3.50;99.90
5796;DHT22;2924;51.458;7.046;2023-01-29T03:39:28;-3.60;99.90
5796;DHT22;2924;51.458;7.046;2023-01-29T03:50:42;-3.70;99.90
5796;DHT22;2924;51.458;7.046;2023-01-29T03:53:20;-3.80;99.90
5796;DHT22;2924;51.458;7.046;2023-01-29T03:56:07;-3.90;99.90
5796;DHT22;2924;51.458;7.046;2023-01-29T03:58:51;-3.80;99.90
5796;DHT22;2924;51.458;7.046;2023-01-29T04:06:34;-3.90;99.90
5796;DHT22;2924;51.458;7.046;2023-01-29T04:09:09;-3.90;99.90
5796;DHT22;2924;51.458;7.046;2023-01-29T04:11:40;-4.00;99.90
5796;DHT22;2924;51.458;7.046;2023-01-29T04:14:08;-4.00;99.90
5796;DHT22;2924;51.458;7.046;2023-01-29T04:16:37;-3.90;99.90
5796;DHT22;2924;51.458;7.046;2023-01-29T04:19:05;-3.80;99.90
5796;DHT22;2924;51.458;7.046;2023-01-29T04:21:31;-3.70;99.90
5796;DHT22;2924;51.458;7.046;2023-01-29T04:23:57;-3.60;99.90
5796;DHT22;2924;51.458;7.046;2023-01-29T04:32:27;-3.20;99.90
5796;DHT22;2924;51.458;7.046;2023-01-29T04:35:04;-3.10;99.90
5796;DHT22;2924;51.458;7.046;2023-01-29T04:37:49;-3.10;99.90
5796;DHT22;2924;51.458;7.046;2023-01-29T04:43:12;-3.00;99.90
5796;DHT22;2924;51.458;7.046;2023-01-29T04:46:03;-3.00;99.90
5796;DHT22;2924;51.458;7.046;2023-01-29T04:51:59;-2.70;99.90
5796;DHT22;2924;51.458;7.046;2023-01-29T04:57:41;-2.60;99.90
5796;DHT22;2924;51.458;7.046;2023-01-29T05:02:48;-2.40;99.90
5796;DHT22;2924;51.458;7.046;2023-01-29T05:05:16;-2.40;99.90
5796;DHT22;2924;51.458;7.046;2023-01-29T05:07:45;-2.40;99.90
5796;DHT22;2924;51.458;7.046;2023-01-29T05:10:14;-2.30;99.90
5796;DHT22;2924;51.458;7.046;2023-01-29T05:12:43;-2.40;99.90
5796;DHT22;2924;51.458;7.046;2023-01-29T05:15:21;-2.40;99.90
5796;DHT22;2924;51.458;7.046;2023-01-29T05:17:47;-2.30;99.90
5796;DHT22;2924;51.458;7.046;2023-01-29T05:20:13;-2.30;99.90
5796;DHT22;2924;51.458;7.046;2023-01-29T05:22:40;-2.30;99.90
5796;DHT22;2924;51.458;7.046;2023-01-29T05:25:19;-2.30;99.90
5796;DHT22;2924;51.458;7.046;2023-01-29T05:27:46;-2.30;99.90
5796;DHT22;2924;51.458;7.046;2023-01-29T05:30:37;-2.30;99.90
5796;DHT22;2924;51.458;7.046;2023-01-29T05:33:03;-2.30;99.90
5796;DHT22;2924;51.458;7.046;2023-01-29T05:35:29;-2.30;99.90
5796;DHT22;2924;51.458;7.046;2023-01-29T05:37:55;-2.20;99.90
5796;DHT22;2924;51.458;7.046;2023-01-29T05:40:21;-2.20;99.90
5796;DHT22;2924;51.458;7.046;2023-01-29T05:42:47;-2.20;99.90
5796;DHT22;2924;51.458;7.046;2023-01-29T05:45:13;-2.20;99.90
5796;DHT22;2924;51.458;7.046;2023-01-29T05:47:38;-2.30;99.90
5796;DHT22;2924;51.458;7.046;2023-01-29T05:50:04;-2.30;99.90
5796;DHT22;2924;51.458;7.046;2023-01-29T05:52:30;-2.30;99.90
5796;DHT22;2924;51.458;7.046;2023-01-29T05:54:56;-2.20;99.90
5796;DHT22;2924;51.458;7.046;2023-01-29T05:57:22;-2.20;99.90
5796;DHT22;2924;51.458;7.046;2023-01-29T05:59:47;-2.30;99.90
5796;DHT22;2924;51.458;7.046;2023-01-29T06:02:13;-2.30;99.90
5796;DHT22;2924;51.458;7.046;2023-01-29T06:04:39;-2.30;99.90
5796;DHT22;2924;51.458;7.046;2023-01-29T06:07:04;-2.30;99.90
5796;DHT22;2924;51.458;7.046;2023-01-29T06:09:30;-2.20;99.90
5796;DHT22;2924;51.458;7.046;2023-01-29T06:11:56;-2.20;99.90
5796;DHT22;2924;51.458;7.046;2023-01-29T06:14:21;-2.10;99.90
5796;DHT22;2924;51.458;7.046;2023-01-29T06:16:47;-2.10;99.90
5796;DHT22;2924;51.458;7.046;2023-01-29T06:19:12;-2.20;99.90
5796;DHT22;2924;51.458;7.046;2023-01-29T06:21:38;-2.10;99.90
5796;DHT22;2924;51.458;7.046;2023-01-29T06:24:04;-2.10;99.90
5796;DHT22;2924;51.458;7.046;2023-01-29T06:26:30;-2.00;99.90
5796;DHT22;2924;51.458;7.046;2023-01-29T06:28:55;-2.00;99.90
5796;DHT22;2924;51.458;7.046;2023-01-29T06:31:21;-1.90;99.90
5796;DHT22;2924;51.458;7.046;2023-01-29T06:33:46;-2.00;99.90
5796;DHT22;2924;51.458;7.046;2023-01-29T06:36:12;-1.90;99.90
5796;DHT22;2924;51.458;7.046;2023-01-29T06:38:38;-1.90;99.90
5796;DHT22;2924;51.458;7.046;2023-01-29T06:41:08;-1.80;99.90
5796;DHT22;2924;51.458;7.046;2023-01-29T06:43:34;-1.80;99.90
5796;DHT22;2924;51.458;7.046;2023-01-29T06:46:00;-1.80;99.90
5796;DHT22;2924;51.458;7.046;2023-01-29T06:48:25;-1.80;99.90
5796;DHT22;2924;51.458;7.046;2023-01-29T06:50:51;-1.80;99.90
5796;DHT22;2924;51.458;7.046;2023-01-29T06:53:19;-1.80;99.90
5796;DHT22;2924;51.458;7.046;2023-01-29T06:55:51;-1.70;99.90
5796;DHT22;2924;51.458;7.046;2023-01-29T06:58:17;-1.70;99.90
5796;DHT22;2924;51.458;7.046;2023-01-29T07:00:43;-1.60;99.90
5796;DHT22;2924;51.458;7.046;2023-01-29T07:03:09;-1.60;99.90
5796;DHT22;2924;51.458;7.046;2023-01-29T07:05:36;-1.70;99.90
5796;DHT22;2924;51.458;7.046;2023-01-29T07:08:01;-1.60;99.90
5796;DHT22;2924;51.458;7.046;2023-01-29T07:10:27;-1.70;99.90
5796;DHT22;2924;51.458;7.046;2023-01-29T07:12:53;-1.70;99.90
5796;DHT22;2924;51.458;7.046;2023-01-29T07:15:18;-1.70;99.90
5796;DHT22;2924;51.458;7.046;2023-01-29T07:17:58;-1.60;99.90
5796;DHT22;2924;51.458;7.046;2023-01-29T07:20:29;-1.70;99.90
5796;DHT22;2924;51.458;7.046;2023-01-29T07:22:58;-1.70;99.90
5796;DHT22;2924;51.458;7.046;2023-01-29T07:25:24;-1.70;99.90
5796;DHT22;2924;51.458;7.046;2023-01-29T07:27:50;-1.70;99.90
5796;DHT22;2924;51.458;7.046;2023-01-29T07:30:16;-1.70;99.90
5796;DHT22;2924;51.458;7.046;2023-01-29T07:32:42;-1.70;99.90
5796;DHT22;2924;51.458;7.046;2023-01-29T07:35:08;-1.70;99.90
5796;DHT22;2924;51.458;7.046;2023-01-29T07:37:34;-1.70;99.90
5796;DHT22;2924;51.458;7.046;2023-01-29T07:39:59;-1.70;99.90
5796;DHT22;2924;51.458;7.046;2023-01-29T07:42:25;-1.70;99.90
5796;DHT22;2924;51.458;7.046;2023-01-29T07:44:51;-1.70;99.90
5796;DHT22;2924;51.458;7.046;2023-01-29T07:47:16;-1.60;99.90
5796;DHT22;2924;51.458;7.046;2023-01-29T07:49:42;-1.60;99.90
5796;DHT22;2924;51.458;7.046;2023-01-29T07:52:08;-1.60;99.90
5796;DHT22;2924;51.458;7.046;2023-01-29T07:54:33;-1.60;99.90
5796;DHT22;2924;51.458;7.046;2023-01-29T07:56:59;-1.60;99.90
5796;DHT22;2924;51.458;7.046;2023-01-29T07:59:24;-1.50;99.90
5796;DHT22;2924;51.458;7.046;2023-01-29T08:01:50;-1.60;99.90
5796;DHT22;2924;51.458;7.046;2023-01-29T08:04:16;-1.60;99.90
5796;DHT22;2924;51.458;7.046;2023-01-29T08:06:41;-1.60;99.90
5796;DHT22;2924;51.458;7.046;2023-01-29T08:09:07;-1.60;99.90
5796;DHT22;2924;51.458;7.046;2023-01-29T08:11:33;-1.50;99.90
5796;DHT22;2924;51.458;7.046;2023-01-29T08:13:58;-1.50;99.90
5796;DHT22;2924;51.458;7.046;2023-01-29T08:16:24;-1.40;99.90
5796;DHT22;2924;51.458;7.046;2023-01-29T08:18:50;-1.40;99.90
5796;DHT22;2924;51.458;7.046;2023-01-29T08:21:15;-1.50;99.90
5796;DHT22;2924;51.458;7.046;2023-01-29T08:23:41;-1.50;99.90
5796;DHT22;2924;51.458;7.046;2023-01-29T08:26:07;-1.40;99.90
5796;DHT22;2924;51.458;7.046;2023-01-29T08:28:33;-1.40;99.90
5796;DHT22;2924;51.458;7.046;2023-01-29T08:30:59;-1.40;99.90
5796;DHT22;2924;51.458;7.046;2023-01-29T08:33:26;-1.40;99.90
5796;DHT22;2924;51.458;7.046;2023-01-29T08:35:53;-1.40;99.90
5796;DHT22;2924;51.458;7.046;2023-01-29T08:38:19;-1.30;99.90
5796;DHT22;2924;51.458;7.046;2023-01-29T08:40:45;-1.30;99.90
5796;DHT22;2924;51.458;7.046;2023-01-29T08:43:12;-1.30;99.90
5796;DHT22;2924;51.458;7.046;2023-01-29T08:45:40;-1.30;99.90
5796;DHT22;2924;51.458;7.046;2023-01-29T08:48:07;-1.30;99.90
5796;DHT22;2924;51.458;7.046;2023-01-29T08:50:33;-1.20;99.90
5796;DHT22;2924;51.458;7.046;2023-01-29T08:53:01;-1.20;99.90
5796;DHT22;2924;51.458;7.046;2023-01-29T08:55:27;-1.20;99.90
5796;DHT22;2924;51.458;7.046;2023-01-29T08:57:53;-1.20;99.90
5796;DHT22;2924;51.458;7.046;2023-01-29T09:00:19;-1.20;99.90
5796;DHT22;2924;51.458;7.046;2023-01-29T09:02:45;-1.30;99.90
5796;DHT22;2924;51.458;7.046;2023-01-29T09:05:10;-1.20;99.90
5796;DHT22;2924;51.458;7.046;2023-01-29T09:07:36;-1.10;99.90
5796;DHT22;2924;51.458;7.046;2023-01-29T09:10:02;-1.10;99.90
5796;DHT22;2924;51.458;7.046;2023-01-29T09:12:27;-1.10;99.90
5796;DHT22;2924;51.458;7.046;2023-01-29T09:14:53;-1.10;99.90
5796;DHT22;2924;51.458;7.046;2023-01-29T09:17:19;-1.00;99.90
5796;DHT22;2924;51.458;7.046;2023-01-29T09:19:44;-1.00;99.90
5796;DHT22;2924;51.458;7.046;2023-01-29T09:22:10;-1.00;99.90
5796;DHT22;2924;51.458;7.046;2023-01-29T09:24:36;-0.90;99.90
5796;DHT22;2924;51.458;7.046;2023-01-29T09:27:01;-1.00;99.90
5796;DHT22;2924;51.458;7.046;2023-01-29T09:29:27;-1.00;99.90
5796;DHT22;2924;51.458;7.046;2023-01-29T09:31:52;-1.00;99.90
5796;DHT22;2924;51.458;7.046;2023-01-29T09:34:18;-0.90;99.90
5796;DHT22;2924;51.458;7.046;2023-01-29T09:36:44;-0.90;99.90
5796;DHT22;2924;51.458;7.046;2023-01-29T09:39:09;-0.80;99.90
5796;DHT22;2924;51.458;7.046;2023-01-29T09:47:05;-0.70;99.90
5796;DHT22;2924;51.458;7.046;2023-01-29T09:49:39;-0.70;99.90
5796;DHT22;2924;51.458;7.046;2023-01-29T09:52:25;-0.70;99.90
5796;DHT22;2924;51.458;7.046;2023-01-29T09:57:46;-0.60;99.90
5796;DHT22;2924;51.458;7.046;2023-01-29T10:00:24;-0.70;99.90
5796;DHT22;2924;51.458;7.046;2023-01-29T10:03:27;-0.70;99.90
5796;DHT22;2924;51.458;7.046;2023-01-29T10:06:10;-0.60;99.90
5796;DHT22;2924;51.458;7.046;2023-01-29T10:21:17;-0.60;99.90
5796;DHT22;2924;51.458;7.046;2023-01-29T10:23:32;-0.60;99.90
5796;DHT22;2924;51.458;7.046;2023-01-29T10:25:58;-0.50;99.90
5796;DHT22;2924;51.458;7.046;2023-01-29T10:28:51;-0.40;99.90
5796;DHT22;2924;51.458;7.046;2023-01-29T10:31:19;-0.30;99.90
5796;DHT22;2924;51.458;7.046;2023-01-29T10:34:13;-0.20;99.90
5796;DHT22;2924;51.458;7.046;2023-01-29T10:36:47;-0.30;99.90
5796;DHT22;2924;51.458;7.046;2023-01-29T10:39:20;-0.20;99.90
5796;DHT22;2924;51.458;7.046;2023-01-29T10:42:13;-0.20;99.90
5796;DHT22;2924;51.458;7.046;2023-01-29T10:53:30;0.10;99.90
5796;DHT22;2924;51.458;7.046;2023-01-29T10:58:57;0.20;99.90
5796;DHT22;2924;51.458;7.046;2023-01-29T11:01:24;0.10;99.90
5796;DHT22;2924;51.458;7.046;2023-01-29T11:04:00;0.10;99.90
5796;DHT22;2924;51.458;7.046;2023-01-29T11:06:31;0.10;99.90
5796;DHT22;2924;51.458;7.046;2023-01-29T11:12:02;0.00;99.90
5796;DHT22;2924;51.458;7.046;2023-01-29T11:14:35;0.00;99.90
5796;DHT22;2924;51.458;7.046;2023-01-29T11:17:02;0.10;99.90
5796;DHT22;2924;51.458;7.046;2023-01-29T11:19:40;0.20;99.90
5796;DHT22;2924;51.458;7.046;2023-01-29T11:22:13;0.20;99.90
5796;DHT22;2924;51.458;7.046;2023-01-29T11:24:39;0.20;99.90
5796;DHT22;2924;51.458;7.046;2023-01-29T11:27:14;0.20;99.90
5796;DHT22;2924;51.458;7.046;2023-01-29T11:29:46;0.20;99.90
5796;DHT22;2924;51.458;7.046;2023-01-29T11:32:13;0.30;99.90
5796;DHT22;2924;51.458;7.046;2023-01-29T11:35:07;0.30;99.90
5796;DHT22;2924;51.458;7.046;2023-01-29T11:37:45;0.30;99.90
5796;DHT22;2924;51.458;7.046;2023-01-29T11:40:36;0.20;99.90
5796;DHT22;2924;51.458;7.046;2023-01-29T11:43:27;0.20;99.90
5796;DHT22;2924;51.458;7.046;2023-01-29T11:46:02;0.20;99.90
5796;DHT22;2924;51.458;7.046;2023-01-29T11:48:47;0.30;99.90
5796;DHT22;2924;51.458;7.046;2023-01-29T11:51:25;0.30;99.90
5796;DHT22;2924;51.458;7.046;2023-01-29T11:53:56;0.30;99.90
5796;DHT22;2924;51.458;7.046;2023-01-29T11:56:41;0.20;99.90
5796;DHT22;2924;51.458;7.046;2023-01-29T12:01:53;0.30;99.90
5796;DHT22;2924;51.458;7.046;2023-01-29T12:04:21;0.20;99.90
5796;DHT22;2924;51.458;7.046;2023-01-29T12:06:50;0.20;99.90
5796;DHT22;2924;51.458;7.046;2023-01-29T12:09:23;0.20;99.90
5796;DHT22;2924;51.458;7.046;2023-01-29T12:11:51;0.30;99.90
5796;DHT22;2924;51.458;7.046;2023-01-29T12:14:33;0.30;99.90
5796;DHT22;2924;51.458;7.046;2023-01-29T12:25:18;0.30;99.90
5796;DHT22;2924;51.458;7.046;2023-01-29T12:27:55;0.40;99.90
5796;DHT22;2924;51.458;7.046;2023-01-29T12:30:30;0.40;99.90
5796;DHT22;2924;51.458;7.046;2023-01-29T12:33:23;0.50;99.90
5796;DHT22;2924;51.458;7.046;2023-01-29T12:36:08;0.40;99.90
5796;DHT22;2924;51.458;7.046;2023-01-29T12:38:36;0.40;99.90
5796;DHT22;2924;51.458;7.046;2023-01-29T12:41:58;0.50;99.90
5796;DHT22;2924;51.458;7.046;2023-01-29T12:44:11;0.50;99.90
5796;DHT22;2924;51.458;7.046;2023-01-29T12:46:42;0.50;99.90
5796;DHT22;2924;51.458;7.046;2023-01-29T12:49:16;0.60;99.90
5796;DHT22;2924;51.458;7.046;2023-01-29T12:54:32;0.70;99.90
5796;DHT22;2924;51.458;7.046;2023-01-29T12:57:01;0.70;99.90
5796;DHT22;2924;51.458;7.046;2023-01-29T12:59:32;0.80;99.90
5796;DHT22;2924;51.458;7.046;2023-01-29T13:02:22;0.80;99.90
5796;DHT22;2924;51.458;7.046;2023-01-29T13:04:56;0.90;99.90
5796;DHT22;2924;51.458;7.046;2023-01-29T13:07:36;1.00;99.90
5796;DHT22;2924;51.458;7.046;2023-01-29T13:10:13;0.90;99.90
5796;DHT22;2924;51.458;7.046;2023-01-29T13:13:02;0.90;99.90
5796;DHT22;2924;51.458;7.046;2023-01-29T13:15:34;0.90;99.90
5796;DHT22;2924;51.458;7.046;2023-01-29T13:20:50;1.00;99.90
5796;DHT22;2924;51.458;7.046;2023-01-29T13:23:44;0.90;99.90
5796;DHT22;2924;51.458;7.046;2023-01-29T13:26:11;0.90;99.90
5796;DHT22;2924;51.458;7.046;2023-01-29T13:28:38;0.90;99.90
5796;DHT22;2924;51.458;7.046;2023-01-29T13:31:35;0.90;99.90
5796;DHT22;2924;51.458;7.046;2023-01-29T13:37:01;0.90;99.90
5796;DHT22;2924;51.458;7.046;2023-01-29T13:39:37;1.00;99.90
5796;DHT22;2924;51.458;7.046;2023-01-29T13:44:56;1.10;99.90
5796;DHT22;2924;51.458;7.046;2023-01-29T13:47:30;1.00;99.90
5796;DHT22;2924;51.458;7.046;2023-01-29T13:50:06;1.00;99.90
5796;DHT22;2924;51.458;7.046;2023-01-29T14:02:46;0.80;99.90
5796;DHT22;2924;51.458;7.046;2023-01-29T14:10:38;0.90;99.90
5796;DHT22;2924;51.458;7.046;2023-01-29T14:18:25;0.80;99.90
5796;DHT22;2924;51.458;7.046;2023-01-29T14:26:26;0.80;99.90
5796;DHT22;2924;51.458;7.046;2023-01-29T14:29:38;0.80;99.90
5796;DHT22;2924;51.458;7.046;2023-01-29T14:31:49;0.80;99.90
5796;DHT22;2924;51.458;7.046;2023-01-29T14:36:45;0.90;99.90
5796;DHT22;2924;51.458;7.046;2023-01-29T14:39:22;0.80;99.90
5796;DHT22;2924;51.458;7.046;2023-01-29T14:41:49;0.80;99.90
5796;DHT22;2924;51.458;7.046;2023-01-29T14:49:56;0.80;99.90
5796;DHT22;2924;51.458;7.046;2023-01-29T14:52:27;0.80;99.90
5796;DHT22;2924;51.458;7.046;2023-01-29T14:54:58;0.80;99.90
5796;DHT22;2924;51.458;7.046;2023-01-29T14:57:25;0.80;99.90
5796;DHT22;2924;51.458;7.046;2023-01-29T14:59:58;0.80;99.90
5796;DHT22;2924;51.458;7.046;2023-01-29T15:02:27;0.70;99.90
5796;DHT22;2924;51.458;7.046;2023-01-29T15:05:04;0.70;99.90
5796;DHT22;2924;51.458;7.046;2023-01-29T15:07:47;0.70;99.90
5796;DHT22;2924;51.458;7.046;2023-01-29T15:10:18;0.70;99.90
5796;DHT22;2924;51.458;7.046;2023-01-29T15:12:49;0.70;99.90
5796;DHT22;2924;51.458;7.046;2023-01-29T15:15:24;0.70;99.90
5796;DHT22;2924;51.458;7.046;2023-01-29T15:18:12;0.70;99.90
5796;DHT22;2924;51.458;7.046;2023-01-29T15:20:41;0.80;99.90
5796;DHT22;2924;51.458;7.046;2023-01-29T15:25:55;0.80;99.90
5796;DHT22;2924;51.458;7.046;2023-01-29T15:28:21;0.80;99.90
5796;DHT22;2924;51.458;7.046;2023-01-29T15:30:54;0.80;99.90
5796;DHT22;2924;51.458;7.046;2023-01-29T15:33:20;0.80;99.90
5796;DHT22;2924;51.458;7.046;2023-01-29T15:35:46;0.80;99.90
5796;DHT22;2924;51.458;7.046;2023-01-29T15:38:18;0.80;99.90
5796;DHT22;2924;51.458;7.046;2023-01-29T15:40:58;0.80;99.90
5796;DHT22;2924;51.458;7.046;2023-01-29T15:43:36;0.80;99.90
5796;DHT22;2924;51.458;7.046;2023-01-29T15:46:05;0.90;99.90
5796;DHT22;2924;51.458;7.046;2023-01-29T15:48:33;0.90;99.90
5796;DHT22;2924;51.458;7.046;2023-01-29T15:51:00;0.90;99.90
5796;DHT22;2924;51.458;7.046;2023-01-29T15:53:34;0.90;99.90
5796;DHT22;2924;51.458;7.046;2023-01-29T15:56:00;0.90;99.90
5796;DHT22;2924;51.458;7.046;2023-01-29T15:58:31;0.90;99.90
5796;DHT22;2924;51.458;7.046;2023-01-29T16:00:58;0.90;99.90
5796;DHT22;2924;51.458;7.046;2023-01-29T16:03:25;0.90;99.90
5796;DHT22;2924;51.458;7.046;2023-01-29T16:05:53;0.90;99.90
5796;DHT22;2924;51.458;7.046;2023-01-29T16:08:24;0.90;99.90
5796;DHT22;2924;51.458;7.046;2023-01-29T16:10:59;0.90;99.90
5796;DHT22;2924;51.458;7.046;2023-01-29T16:13:29;1.00;99.90
5796;DHT22;2924;51.458;7.046;2023-01-29T16:15:55;1.00;99.90
5796;DHT22;2924;51.458;7.046;2023-01-29T16:18:45;1.00;99.90
5796;DHT22;2924;51.458;7.046;2023-01-29T16:21:37;1.00;99.90
5796;DHT22;2924;51.458;7.046;2023-01-29T16:24:05;1.10;99.90
5796;DHT22;2924;51.458;7.046;2023-01-29T16:26:37;1.10;99.90
5796;DHT22;2924;51.458;7.046;2023-01-29T16:29:25;1.00;99.90
5796;DHT22;2924;51.458;7.046;2023-01-29T16:31:54;1.00;99.90
5796;DHT22;2924;51.458;7.046;2023-01-29T16:34:39;1.00;99.90
5796;DHT22;2924;51.458;7.046;2023-01-29T16:37:29;1.00;99.90
5796;DHT22;2924;51.458;7.046;2023-01-29T16:39:53;1.10;99.90
5796;DHT22;2924;51.458;7.046;2023-01-29T16:44:59;1.10;99.90
5796;DHT22;2924;51.458;7.046;2023-01-29T16:50:31;1.10;99.90
5796;DHT22;2924;51.458;7.046;2023-01-29T16:53:16;1.10;99.90
5796;DHT22;2924;51.458;7.046;2023-01-29T16:55:44;1.10;99.90
5796;DHT22;2924;51.458;7.046;2023-01-29T16:58:19;1.10;99.90
5796;DHT22;2924;51.458;7.046;2023-01-29T17:00:49;1.10;99.90
5796;DHT22;2924;51.458;7.046;2023-01-29T17:03:17;1.10;99.90
5796;DHT22;2924;51.458;7.046;2023-01-29T17:05:43;1.20;99.90
5796;DHT22;2924;51.458;7.046;2023-01-29T17:08:33;1.10;99.90
5796;DHT22;2924;51.458;7.046;2023-01-29T17:10:59;1.10;99.90
5796;DHT22;2924;51.458;7.046;2023-01-29T17:13:29;1.20;99.90
5796;DHT22;2924;51.458;7.046;2023-01-29T17:16:00;1.10;99.90
5796;DHT22;2924;51.458;7.046;2023-01-29T17:18:27;1.20;99.90
5796;DHT22;2924;51.458;7.046;2023-01-29T17:20:53;1.20;99.90
5796;DHT22;2924;51.458;7.046;2023-01-29T17:23:19;1.20;99.90
5796;DHT22;2924;51.458;7.046;2023-01-29T17:25:46;1.20;99.90
5796;DHT22;2924;51.458;7.046;2023-01-29T17:28:13;1.30;99.90
5796;DHT22;2924;51.458;7.046;2023-01-29T17:30:39;1.30;99.90
5796;DHT22;2924;51.458;7.046;2023-01-29T17:33:14;1.30;99.90
5796;DHT22;2924;51.458;7.046;2023-01-29T17:35:42;1.30;99.90
5796;DHT22;2924;51.458;7.046;2023-01-29T17:38:13;1.30;99.90
5796;DHT22;2924;51.458;7.046;2023-01-29T17:43:10;1.40;99.90
5796;DHT22;2924;51.458;7.046;2023-01-29T17:45:39;1.40;99.90
5796;DHT22;2924;51.458;7.046;2023-01-29T17:48:14;1.40;99.90
5796;DHT22;2924;51.458;7.046;2023-01-29T17:50:43;1.40;99.90
5796;DHT22;2924;51.458;7.046;2023-01-29T17:53:14;1.40;99.90
5796;DHT22;2924;51.458;7.046;2023-01-29T17:55:40;1.40;99.90
5796;DHT22;2924;51.458;7.046;2023-01-29T18:00:44;1.40;99.90
5796;DHT22;2924;51.458;7.046;2023-01-29T18:03:09;1.50;99.90
5796;DHT22;2924;51.458;7.046;2023-01-29T18:05:35;1.50;99.90
5796;DHT22;2924;51.458;7.046;2023-01-29T18:08:01;1.50;99.90
5796;DHT22;2924;51.458;7.046;2023-01-29T18:10:27;1.50;99.90
5796;DHT22;2924;51.458;7.046;2023-01-29T18:12:53;1.50;99.90
5796;DHT22;2924;51.458;7.046;2023-01-29T18:15:19;1.50;99.90
5796;DHT22;2924;51.458;7.046;2023-01-29T18:17:45;1.50;99.90
5796;DHT22;2924;51.458;7.046;2023-01-29T18:20:20;1.40;99.90
5796;DHT22;2924;51.458;7.046;2023-01-29T18:22:46;1.40;99.90
5796;DHT22;2924;51.458;7.046;2023-01-29T18:25:12;1.40;99.90
5796;DHT22;2924;51.458;7.046;2023-01-29T18:27:38;1.40;99.90
5796;DHT22;2924;51.458;7.046;2023-01-29T18:30:05;1.40;99.90
5796;DHT22;2924;51.458;7.046;2023-01-29T18:32:30;1.30;99.90
5796;DHT22;2924;51.458;7.046;2023-01-29T18:34:56;1.40;99.90
5796;DHT22;2924;51.458;7.046;2023-01-29T18:37:22;1.40;99.90
5796;DHT22;2924;51.458;7.046;2023-01-29T18:39:47;1.50;99.90
5796;DHT22;2924;51.458;7.046;2023-01-29T18:42:13;1.40;99.90
5796;DHT22;2924;51.458;7.046;2023-01-29T18:44:39;1.50;99.90
5796;DHT22;2924;51.458;7.046;2023-01-29T18:47:05;1.50;99.90
5796;DHT22;2924;51.458;7.046;2023-01-29T18:49:31;1.50;99.90
5796;DHT22;2924;51.458;7.046;2023-01-29T18:51:56;1.50;99.90
5796;DHT22;2924;51.458;7.046;2023-01-29T18:54:22;1.50;99.90
5796;DHT22;2924;51.458;7.046;2023-01-29T18:56:48;1.50;99.90
5796;DHT22;2924;51.458;7.046;2023-01-29T18:59:13;1.50;99.90
5796;DHT22;2924;51.458;7.046;2023-01-29T19:01:39;1.60;99.90
5796;DHT22;2924;51.458;7.046;2023-01-29T19:04:04;1.60;99.90
5796;DHT22;2924;51.458;7.046;2023-01-29T19:06:32;1.50;99.90
5796;DHT22;2924;51.458;7.046;2023-01-29T19:08:58;1.50;99.90
5796;DHT22;2924;51.458;7.046;2023-01-29T19:11:24;1.30;99.90
5796;DHT22;2924;51.458;7.046;2023-01-29T19:13:49;1.40;99.90
5796;DHT22;2924;51.458;7.046;2023-01-29T19:16:15;1.40;99.90